Time;durP1;ratioP1;P1;durP2;ratioP2;P2;SDS_P1;SDS_P2;PMS_P1;PMS_P2;Temp;Humidity;BMP_temperature;BMP_pressure;BME280_temperature;BME280_humidity;BME280_pressure;Samples;Min_cycle;Max_cycle;Signal;HPM_P1;HPM_P2
2022/04/16 00:01:09;;;;;;;10.57;8.00;;;9.10;99.90;;;;;;5069570;28;20096;-87
2022/04/16 00:03:34;;;;;;;8.38;7.57;;;9.10;99.90;;;;;;5067127;28;20424;-87
2022/04/16 00:06:00;;;;;;;8.95;7.55;;;9.10;99.90;;;;;;5071139;28;20111;-86
2022/04/16 00:08:28;;;;;;;7.22;6.43;;;9.10;99.90;;;;;;5050135;28;20035;-87
2022/04/16 00:10:55;;;;;;;8.75;7.35;;;9.10;99.90;;;;;;5070515;28;20025;-86
2022/04/16 00:13:22;;;;;;;8.27;7.57;;;9.10;99.90;;;;;;5060296;28;20100;-86
2022/04/16 00:15:58;;;;;;;6.75;6.15;;;9.00;99.90;;;;;;5064357;28;20032;-86
2022/04/16 00:18:24;;;;;;;7.72;6.95;;;9.00;99.90;;;;;;5065238;28;20046;-86
2022/04/16 00:20:51;;;;;;;6.82;6.20;;;9.00;99.90;;;;;;5060132;28;20041;-86
2022/04/16 00:23:22;;;;;;;9.02;8.13;;;9.00;99.90;;;;;;5059651;28;20029;-86
2022/04/16 00:25:48;;;;;;;9.07;8.10;;;9.00;99.90;;;;;;5064281;28;20028;-86
2022/04/16 00:28:14;;;;;;;7.30;6.60;;;9.00;99.90;;;;;;5059282;28;20035;-87
2022/04/16 00:30:40;;;;;;;8.40;7.60;;;9.00;99.90;;;;;;5069896;28;20024;-88
2022/04/16 00:33:12;;;;;;;8.27;7.47;;;9.00;99.90;;;;;;5063081;28;20557;-87
2022/04/16 00:35:39;;;;;;;7.72;7.03;;;9.00;99.90;;;;;;5062853;28;20036;-87
2022/04/16 00:38:05;;;;;;;7.45;6.75;;;9.00;99.90;;;;;;5060310;28;20369;-86
2022/04/16 00:40:31;;;;;;;8.55;6.72;;;9.00;99.90;;;;;;5054018;28;20218;-87
2022/04/16 00:42:58;;;;;;;7.90;7.20;;;9.00;99.90;;;;;;5054587;28;20092;-87
2022/04/16 00:45:25;;;;;;;8.30;7.45;;;9.10;99.90;;;;;;5064612;28;20051;-88
2022/04/16 00:47:51;;;;;;;9.30;8.32;;;9.10;99.90;;;;;;5078276;28;20067;-86
2022/04/16 00:50:16;;;;;;;10.55;9.43;;;9.10;99.90;;;;;;5065757;28;20071;-87
2022/04/16 00:52:44;;;;;;;10.40;9.48;;;9.10;99.90;;;;;;5069365;28;20559;-88
2022/04/16 00:55:10;;;;;;;11.63;10.52;;;9.10;99.90;;;;;;5054021;28;20025;-87
2022/04/16 00:57:40;;;;;;;12.75;11.50;;;9.10;99.90;;;;;;5066780;28;20032;-87
2022/04/16 01:00:11;;;;;;;13.48;12.15;;;9.10;99.90;;;;;;5060043;28;20029;-86
2022/04/16 01:02:37;;;;;;;14.15;12.70;;;9.00;99.90;;;;;;5055771;28;20078;-86
2022/04/16 01:05:04;;;;;;;13.32;12.13;;;9.00;99.90;;;;;;5063047;28;20029;-86
2022/04/16 01:07:30;;;;;;;13.35;11.73;;;8.90;99.90;;;;;;5064294;28;20048;-85
2022/04/16 01:09:56;;;;;;;12.80;10.98;;;8.80;99.90;;;;;;5069633;28;20035;-87
2022/04/16 01:12:22;;;;;;;13.15;11.60;;;8.70;99.90;;;;;;5057339;28;20027;-86
2022/04/16 01:14:50;;;;;;;12.27;11.18;;;8.60;99.90;;;;;;5066597;28;20033;-86
2022/04/16 01:17:16;;;;;;;14.68;11.70;;;8.60;99.90;;;;;;5052321;28;20033;-86
2022/04/16 01:19:42;;;;;;;13.38;11.98;;;8.50;99.90;;;;;;5063956;28;20384;-85
2022/04/16 01:22:14;;;;;;;16.23;14.57;;;8.50;99.90;;;;;;5055434;28;20032;-86
2022/04/16 01:24:43;;;;;;;20.90;16.30;;;8.30;99.90;;;;;;5076948;28;20063;-86
2022/04/16 01:27:10;;;;;;;18.67;16.75;;;8.20;99.90;;;;;;5060139;28;20082;-85
2022/04/16 01:29:36;;;;;;;22.20;18.42;;;8.10;99.90;;;;;;5064494;28;20033;-86
2022/04/16 01:32:02;;;;;;;20.20;17.80;;;8.20;99.90;;;;;;5068466;28;20518;-86
2022/04/16 01:34:29;;;;;;;19.40;16.80;;;8.10;99.90;;;;;;5061447;28;20056;-85
2022/04/16 01:36:54;;;;;;;24.20;17.83;;;8.00;99.90;;;;;;5068121;28;20411;-86
2022/04/16 01:39:20;;;;;;;19.52;16.00;;;8.10;99.90;;;;;;5061046;28;20047;-86
2022/04/16 01:41:46;;;;;;;21.98;16.80;;;8.10;99.90;;;;;;5056665;28;20025;-87
2022/04/16 01:44:12;;;;;;;23.75;18.65;;;8.10;99.90;;;;;;5060313;28;20155;-86
2022/04/16 01:46:37;;;;;;;21.27;18.33;;;8.00;99.90;;;;;;5067142;28;20077;-86
2022/04/16 01:49:03;;;;;;;23.67;19.52;;;7.90;99.90;;;;;;5064095;28;20025;-87
2022/04/16 01:51:29;;;;;;;24.73;20.25;;;7.90;99.90;;;;;;5051998;28;20028;-87
2022/04/16 01:53:55;;;;;;;21.85;18.10;;;7.90;99.90;;;;;;5067705;28;20029;-86
2022/04/16 01:56:20;;;;;;;24.90;18.58;;;7.90;99.90;;;;;;5062703;28;20026;-86
2022/04/16 01:58:46;;;;;;;19.02;14.82;;;7.90;99.90;;;;;;5058661;28;20025;-86
2022/04/16 02:01:11;;;;;;;17.98;15.38;;;8.00;99.90;;;;;;5052095;28;20045;-86
2022/04/16 02:03:37;;;;;;;20.08;16.80;;;8.00;99.90;;;;;;5073335;28;20036;-86
2022/04/16 02:06:06;;;;;;;27.00;17.77;;;8.00;99.90;;;;;;5062778;28;20028;-86
2022/04/16 02:08:31;;;;;;;24.10;16.35;;;7.90;99.90;;;;;;5061803;28;20111;-87
2022/04/16 02:10:57;;;;;;;25.58;17.50;;;7.90;99.90;;;;;;5070247;28;20048;-87
2022/04/16 02:13:23;;;;;;;25.05;18.20;;;7.90;99.90;;;;;;5054888;28;20476;-86
2022/04/16 02:15:48;;;;;;;24.00;18.35;;;7.80;99.90;;;;;;5068888;28;20104;-86
2022/04/16 02:18:14;;;;;;;23.13;17.88;;;7.80;99.90;;;;;;5058709;28;20039;-87
2022/04/16 02:20:42;;;;;;;25.98;17.33;;;7.70;99.90;;;;;;5066118;28;20020;-87
2022/04/16 02:23:09;;;;;;;22.85;17.05;;;7.80;99.90;;;;;;5054242;28;20037;-88
2022/04/16 02:25:35;;;;;;;22.92;17.75;;;7.70;99.90;;;;;;5059920;28;20519;-87
2022/04/16 02:28:00;;;;;;;16.25;13.65;;;7.70;99.90;;;;;;5067914;28;20024;-86
2022/04/16 02:30:30;;;;;;;31.10;18.85;;;7.60;99.90;;;;;;5064421;28;20028;-87
2022/04/16 02:32:56;;;;;;;34.55;21.33;;;7.50;99.90;;;;;;5060010;28;20033;-86
2022/04/16 02:35:22;;;;;;;35.22;20.60;;;7.30;99.90;;;;;;5073226;28;20083;-84
2022/04/16 02:37:48;;;;;;;34.50;21.40;;;7.30;99.90;;;;;;5068684;28;20091;-86
2022/04/16 02:40:14;;;;;;;31.60;19.25;;;7.30;99.90;;;;;;5056416;28;20044;-86
2022/04/16 02:42:42;;;;;;;33.00;21.92;;;7.30;99.90;;;;;;5068050;28;20020;-86
2022/04/16 02:47:55;;;;;;;32.78;21.05;;;7.20;99.90;;;;;;5071037;28;20040;-85
2022/04/16 02:50:24;;;;;;;31.63;20.25;;;7.10;99.90;;;;;;5064264;28;20036;-86
2022/04/16 02:52:50;;;;;;;34.20;21.80;;;7.10;99.90;;;;;;5057873;28;20557;-85
2022/04/16 02:55:16;;;;;;;36.33;22.17;;;7.10;99.90;;;;;;5062218;28;20169;-86
2022/04/16 02:57:45;;;;;;;37.03;20.60;;;7.10;99.90;;;;;;5063778;28;20045;-86
2022/04/16 03:00:13;;;;;;;35.63;21.90;;;7.10;99.90;;;;;;5048356;28;20033;-87
2022/04/16 03:02:39;;;;;;;36.83;21.08;;;7.10;99.90;;;;;;5069701;28;20021;-86
2022/04/16 03:05:06;;;;;;;33.17;19.92;;;7.10;99.90;;;;;;5062417;28;20040;-86
2022/04/16 03:07:32;;;;;;;34.75;21.17;;;7.00;99.90;;;;;;5071455;28;20054;-86
2022/04/16 03:09:58;;;;;;;31.65;21.25;;;7.10;99.90;;;;;;5072371;28;20422;-84
2022/04/16 03:12:24;;;;;;;34.45;20.30;;;7.10;99.90;;;;;;5046563;28;20029;-86
2022/04/16 03:17:35;;;;;;;33.95;21.20;;;7.10;99.90;;;;;;5072979;28;20031;-84
2022/04/16 03:20:04;;;;;;;32.67;20.65;;;7.20;99.90;;;;;;5047069;28;20496;-86
2022/04/16 03:22:32;;;;;;;32.20;21.13;;;7.20;99.90;;;;;;5063738;28;20063;-87
2022/04/16 03:24:58;;;;;;;27.17;19.80;;;7.20;99.90;;;;;;5055110;28;20024;-86
2022/04/16 03:27:24;;;;;;;33.35;21.23;;;7.20;99.90;;;;;;5071098;28;20052;-87
2022/04/16 03:29:49;;;;;;;33.42;22.08;;;7.20;99.90;;;;;;5070220;28;20032;-84
2022/04/16 03:32:15;;;;;;;37.63;23.00;;;7.20;99.90;;;;;;5070139;28;20040;-86
2022/04/16 03:34:41;;;;;;;34.45;23.55;;;7.20;99.90;;;;;;5058607;28;20035;-86
2022/04/16 03:37:07;;;;;;;38.47;24.73;;;7.20;99.90;;;;;;5061556;28;20133;-84
2022/04/16 03:39:33;;;;;;;44.72;27.20;;;7.20;99.90;;;;;;5055547;28;20751;-86
2022/04/16 03:41:59;;;;;;;44.78;25.63;;;7.20;99.90;;;;;;5064563;28;20035;-86
2022/04/16 03:44:24;;;;;;;42.40;26.17;;;7.20;99.90;;;;;;5065179;28;20025;-86
2022/04/16 03:46:50;;;;;;;40.92;26.98;;;7.20;99.90;;;;;;5060046;28;20174;-84
2022/04/16 03:49:15;;;;;;;42.17;25.98;;;7.10;99.90;;;;;;5060296;28;20391;-86
2022/04/16 03:51:41;;;;;;;40.92;26.08;;;7.10;99.90;;;;;;5071806;28;20013;-85
2022/04/16 04:02:19;;;;;;;38.78;24.48;;;7.00;99.90;;;;;;5064376;28;20235;-86
2022/04/16 04:04:46;;;;;;;40.55;24.77;;;7.00;99.90;;;;;;5074469;28;20146;-84
2022/04/16 04:07:12;;;;;;;43.92;25.05;;;7.00;99.90;;;;;;5069136;28;20017;-86
2022/04/16 04:09:38;;;;;;;47.85;25.40;;;7.00;99.90;;;;;;5070074;28;20035;-86
2022/04/16 04:12:13;;;;;;;39.55;24.17;;;7.00;99.90;;;;;;5069196;28;20117;-86
2022/04/16 04:14:44;;;;;;;40.58;24.23;;;7.00;99.90;;;;;;5069892;28;20090;-87
2022/04/16 04:17:10;;;;;;;43.73;23.67;;;6.90;99.90;;;;;;5061259;28;20029;-86
2022/04/16 04:19:42;;;;;;;42.30;24.30;;;6.90;99.90;;;;;;5063321;28;20291;-85
2022/04/16 04:22:10;;;;;;;32.70;21.05;;;6.90;99.90;;;;;;5064289;28;20024;-86
2022/04/16 04:24:39;;;;;;;37.85;22.65;;;6.90;99.90;;;;;;5070209;28;20196;-86
2022/04/16 04:27:06;;;;;;;41.97;22.73;;;6.90;99.90;;;;;;5066828;28;20025;-86
2022/04/16 04:29:33;;;;;;;42.72;23.13;;;6.80;99.90;;;;;;5069525;28;20029;-86
2022/04/16 04:31:58;;;;;;;36.20;22.80;;;6.80;99.90;;;;;;5063226;28;20497;-85
2022/04/16 04:34:24;;;;;;;30.30;20.05;;;6.90;99.90;;;;;;5066220;28;20038;-85
2022/04/16 04:36:50;;;;;;;34.03;20.60;;;6.90;99.90;;;;;;5057928;28;20021;-85
2022/04/16 04:39:16;;;;;;;26.60;19.60;;;6.80;99.90;;;;;;5072087;28;20037;-86
2022/04/16 04:41:43;;;;;;;27.67;19.08;;;6.80;99.90;;;;;;5064587;28;20030;-86
2022/04/16 04:44:12;;;;;;;27.92;18.92;;;6.70;99.90;;;;;;5050556;28;20025;-87
2022/04/16 04:46:39;;;;;;;29.73;20.17;;;6.60;99.90;;;;;;5066841;28;20021;-86
2022/04/16 04:49:08;;;;;;;27.50;20.05;;;6.60;99.90;;;;;;5057935;28;20039;-86
2022/04/16 04:51:41;;;;;;;26.35;18.10;;;6.60;99.90;;;;;;5062743;28;20029;-86
2022/04/16 04:54:07;;;;;;;27.80;17.48;;;6.40;99.90;;;;;;5061137;28;20381;-85
2022/04/16 04:56:34;;;;;;;23.13;16.20;;;6.50;99.90;;;;;;5063117;28;20021;-86
2022/04/16 04:59:00;;;;;;;26.83;18.13;;;6.40;99.90;;;;;;5060524;28;20515;-85
2022/04/16 05:01:26;;;;;;;25.73;17.83;;;6.30;99.90;;;;;;5067966;28;20028;-85
2022/04/16 05:03:52;;;;;;;24.02;17.83;;;6.30;99.90;;;;;;5070980;28;20523;-86
2022/04/16 05:06:17;;;;;;;32.30;23.35;;;6.40;99.90;;;;;;5072224;28;20016;-86
2022/04/16 05:08:43;;;;;;;26.40;20.13;;;6.40;99.90;;;;;;5069221;28;20107;-86
2022/04/16 05:11:12;;;;;;;26.10;19.40;;;6.50;99.90;;;;;;5061887;28;20037;-86
2022/04/16 05:13:38;;;;;;;19.00;16.35;;;6.50;99.90;;;;;;5061891;28;20029;-86
2022/04/16 05:16:04;;;;;;;23.35;17.65;;;6.50;99.90;;;;;;5071119;28;20086;-86
2022/04/16 05:18:30;;;;;;;23.35;19.42;;;6.50;99.90;;;;;;5067098;28;20024;-85
2022/04/16 05:20:55;;;;;;;23.83;17.90;;;6.50;99.90;;;;;;5070540;28;20446;-85
2022/04/16 05:23:21;;;;;;;20.15;15.68;;;6.50;99.90;;;;;;5068438;28;20481;-87
2022/04/16 05:25:46;;;;;;;22.60;16.02;;;6.50;99.90;;;;;;5068841;28;20032;-86
2022/04/16 05:28:12;;;;;;;19.10;16.73;;;6.40;99.90;;;;;;5066700;28;20028;-85
2022/04/16 05:30:44;;;;;;;24.33;15.27;;;6.50;99.90;;;;;;5066963;28;20043;-87
2022/04/16 05:35:57;;;;;;;18.35;14.40;;;6.50;99.90;;;;;;5068837;28;20128;-87
2022/04/16 05:38:23;;;;;;;15.02;12.48;;;6.50;99.90;;;;;;5057290;28;20044;-87
2022/04/16 05:40:48;;;;;;;18.05;12.98;;;6.50;99.90;;;;;;5054771;28;20036;-87
2022/04/16 05:43:14;;;;;;;14.27;12.77;;;6.40;99.90;;;;;;5062886;28;20027;-87
2022/04/16 05:45:39;;;;;;;18.60;13.18;;;6.40;99.90;;;;;;5070632;28;20093;-86
2022/04/16 05:48:05;;;;;;;14.63;13.10;;;6.40;99.90;;;;;;5062620;28;20048;-86
2022/04/16 05:50:31;;;;;;;14.88;12.68;;;6.30;99.90;;;;;;5063368;28;20025;-86
2022/04/16 05:52:57;;;;;;;22.10;14.70;;;6.30;99.90;;;;;;5064871;28;20373;-87
2022/04/16 05:55:23;;;;;;;14.35;12.85;;;6.30;99.90;;;;;;5058967;28;20017;-86
2022/04/16 05:57:49;;;;;;;13.80;12.25;;;6.20;99.90;;;;;;5055755;28;20490;-87
2022/04/16 06:00:15;;;;;;;15.65;12.68;;;6.30;99.90;;;;;;5064304;28;20065;-85
2022/04/16 06:02:42;;;;;;;13.55;12.20;;;6.30;99.90;;;;;;5058319;28;20473;-86
2022/04/16 06:05:08;;;;;;;13.63;11.05;;;6.30;99.90;;;;;;5061256;28;20021;-85
2022/04/16 06:07:33;;;;;;;9.30;8.50;;;6.30;99.90;;;;;;5063936;28;20040;-85
2022/04/16 06:09:59;;;;;;;9.73;8.43;;;6.30;99.90;;;;;;5063704;28;20059;-89
2022/04/16 06:12:26;;;;;;;7.72;6.93;;;6.20;99.90;;;;;;5054523;28;20428;-88
2022/04/16 06:14:52;;;;;;;10.57;7.72;;;6.20;99.90;;;;;;5070427;28;20087;-88
2022/04/16 06:17:18;;;;;;;8.82;7.93;;;6.00;99.90;;;;;;5051692;28;20029;-86
2022/04/16 06:19:44;;;;;;;9.50;8.60;;;5.90;99.90;;;;;;5066631;28;20388;-89
2022/04/16 06:22:12;;;;;;;11.25;8.90;;;6.10;99.90;;;;;;5051756;28;20020;-89
2022/04/16 06:24:41;;;;;;;10.05;9.15;;;6.10;99.90;;;;;;5068190;28;20057;-86
2022/04/16 06:27:08;;;;;;;14.40;8.38;;;6.10;99.90;;;;;;5067107;28;20021;-85
2022/04/16 06:29:34;;;;;;;10.98;9.88;;;6.20;99.90;;;;;;5064720;28;20033;-86
2022/04/16 06:31:59;;;;;;;7.93;7.07;;;6.30;99.90;;;;;;5070922;28;20029;-86
2022/04/16 06:34:27;;;;;;;8.20;6.30;;;6.30;99.90;;;;;;5062753;28;20043;-86
2022/04/16 06:36:52;;;;;;;7.50;6.80;;;6.40;99.90;;;;;;5063528;28;20040;-86
2022/04/16 06:39:18;;;;;;;6.75;6.05;;;6.40;99.90;;;;;;5061368;28;20530;-87
2022/04/16 06:41:44;;;;;;;7.63;6.30;;;6.40;99.90;;;;;;5059914;28;20124;-87
2022/04/16 06:44:09;;;;;;;6.85;6.25;;;6.40;99.90;;;;;;5056381;28;20052;-86
2022/04/16 06:46:35;;;;;;;9.05;7.30;;;6.50;99.90;;;;;;5058721;28;20061;-86
2022/04/16 06:49:01;;;;;;;6.78;6.18;;;6.60;99.90;;;;;;5066453;28;20027;-85
2022/04/16 06:51:26;;;;;;;6.28;5.70;;;6.70;99.90;;;;;;5061353;28;20068;-86
2022/04/16 06:53:52;;;;;;;7.78;7.03;;;6.90;99.90;;;;;;5064528;28;20028;-85
2022/04/16 06:56:17;;;;;;;6.82;6.30;;;7.10;99.90;;;;;;5050225;28;20087;-84
2022/04/16 06:58:43;;;;;;;6.15;5.55;;;7.40;99.90;;;;;;5072640;28;20025;-85
2022/04/16 07:01:08;;;;;;;6.93;6.30;;;7.80;99.50;;;;;;5057433;28;20035;-86
2022/04/16 07:03:34;;;;;;;6.22;5.72;;;8.20;98.40;;;;;;5060366;28;20181;-85
2022/04/16 07:06:00;;;;;;;6.55;5.93;;;8.50;93.50;;;;;;5064413;28;20757;-85
2022/04/16 07:08:26;;;;;;;7.03;6.43;;;8.80;92.80;;;;;;5072791;28;20183;-86
2022/04/16 07:10:52;;;;;;;7.38;6.43;;;9.00;92.10;;;;;;5062939;28;20020;-84
2022/04/16 07:13:18;;;;;;;5.85;5.35;;;9.30;92.30;;;;;;5062331;28;20025;-87
2022/04/16 07:15:44;;;;;;;5.85;5.40;;;9.70;89.90;;;;;;5066160;28;20021;-86
2022/04/16 07:18:10;;;;;;;6.00;5.57;;;10.30;89.40;;;;;;5049833;28;20396;-86
2022/04/16 07:20:36;;;;;;;7.20;6.60;;;11.30;84.90;;;;;;5058416;28;20021;-85
2022/04/16 07:23:02;;;;;;;11.02;6.55;;;12.40;77.90;;;;;;5054489;28;20031;-85
2022/04/16 07:25:27;;;;;;;7.75;6.97;;;13.50;72.30;;;;;;5070998;28;20074;-85
2022/04/16 07:27:53;;;;;;;4.93;4.60;;;14.50;67.60;;;;;;5070507;28;20644;-87
2022/04/16 07:30:19;;;;;;;5.68;5.28;;;15.10;65.30;;;;;;5058005;28;20024;-86
2022/04/16 07:32:44;;;;;;;4.82;4.50;;;15.30;61.90;;;;;;5068007;28;20029;-85
2022/04/16 07:35:10;;;;;;;3.70;3.35;;;15.30;61.30;;;;;;5060779;28;20035;-84
2022/04/16 07:37:36;;;;;;;3.53;3.22;;;14.60;59.90;;;;;;5066924;28;20104;-87
2022/04/16 07:40:02;;;;;;;3.90;3.00;;;14.50;62.20;;;;;;5065979;28;20724;-85
2022/04/16 07:42:28;;;;;;;9.15;2.45;;;15.50;56.50;;;;;;5068585;28;20056;-87
2022/04/16 07:44:54;;;;;;;1.83;1.40;;;16.20;53.90;;;;;;5069738;28;20032;-86
2022/04/16 07:47:20;;;;;;;1.83;1.40;;;17.60;50.70;;;;;;5064890;28;20040;-87
2022/04/16 07:49:46;;;;;;;2.03;1.70;;;18.90;48.70;;;;;;5064180;28;20088;-86
2022/04/16 07:52:12;;;;;;;1.70;1.50;;;19.70;45.80;;;;;;5070706;28;20073;-87
2022/04/16 07:54:38;;;;;;;2.85;1.65;;;21.00;44.90;;;;;;5059039;28;20060;-85
2022/04/16 07:57:05;;;;;;;1.90;1.70;;;21.80;43.70;;;;;;5065738;28;20055;-87
2022/04/16 07:59:31;;;;;;;2.13;1.77;;;22.50;43.00;;;;;;5069333;28;20032;-87
2022/04/16 08:01:56;;;;;;;1.80;1.70;;;22.80;41.40;;;;;;5068464;28;20029;-86
2022/04/16 08:04:22;;;;;;;1.70;1.60;;;22.30;41.30;;;;;;5068079;28;20024;-87
2022/04/16 08:06:48;;;;;;;1.67;1.58;;;22.10;41.50;;;;;;5077917;28;20028;-85
2022/04/16 08:09:14;;;;;;;1.98;1.25;;;22.70;39.90;;;;;;5068425;28;20036;-87
2022/04/16 08:11:40;;;;;;;2.03;1.48;;;23.50;39.80;;;;;;5070040;28;20387;-88
2022/04/16 08:14:06;;;;;;;1.77;1.35;;;23.90;39.30;;;;;;5053628;28;20032;-86
2022/04/16 08:16:32;;;;;;;2.60;1.25;;;22.90;34.80;;;;;;5066535;28;20107;-87
2022/04/16 08:18:57;;;;;;;2.53;1.30;;;22.30;38.10;;;;;;5072140;28;20119;-87
2022/04/16 08:21:25;;;;;;;2.60;1.80;;;22.30;38.20;;;;;;5056862;28;20107;-86
2022/04/16 08:23:56;;;;;;;1.77;1.40;;;22.60;40.00;;;;;;5067002;28;20116;-85
2022/04/16 08:26:25;;;;;;;2.35;1.65;;;22.80;38.00;;;;;;5061743;28;20564;-87
2022/04/16 08:28:51;;;;;;;1.60;1.50;;;22.70;37.80;;;;;;5069640;28;20374;-88
2022/04/16 08:31:17;;;;;;;1.90;1.40;;;21.90;39.50;;;;;;5065071;28;20025;-87
2022/04/16 08:33:42;;;;;;;2.47;1.83;;;20.00;39.00;;;;;;5066888;28;20082;-87
2022/04/16 08:36:08;;;;;;;2.42;1.90;;;19.40;44.50;;;;;;5066716;28;20050;-87
2022/04/16 08:38:34;;;;;;;2.72;2.08;;;20.40;43.10;;;;;;5067241;28;20545;-86
2022/04/16 08:41:04;;;;;;;2.17;1.95;;;20.80;41.20;;;;;;5063766;28;20369;-86
2022/04/16 08:43:30;;;;;;;2.73;2.03;;;22.20;41.10;;;;;;5066462;28;20078;-86
2022/04/16 08:45:56;;;;;;;2.53;2.25;;;21.90;39.20;;;;;;5064809;28;20275;-87
2022/04/16 08:48:23;;;;;;;2.22;2.10;;;21.80;40.50;;;;;;5070904;28;20040;-86
2022/04/16 08:50:49;;;;;;;2.70;2.50;;;21.80;39.40;;;;;;5067021;28;20293;-86
2022/04/16 08:53:15;;;;;;;2.85;2.65;;;22.40;41.10;;;;;;5065145;28;20119;-87
2022/04/16 08:55:41;;;;;;;3.03;2.70;;;22.50;40.30;;;;;;5061343;28;20119;-87
2022/04/16 08:58:07;;;;;;;3.08;2.88;;;22.60;38.50;;;;;;5062455;28;20128;-87
2022/04/16 09:00:33;;;;;;;2.33;2.10;;;22.20;39.20;;;;;;5065830;28;20136;-86
2022/04/16 09:03:03;;;;;;;2.60;2.40;;;22.00;40.70;;;;;;5063160;28;20078;-86
2022/04/16 09:05:29;;;;;;;3.27;2.37;;;21.00;39.60;;;;;;5063017;28;20488;-87
2022/04/16 09:07:57;;;;;;;2.10;1.85;;;21.20;40.60;;;;;;5065739;28;20025;-87
2022/04/16 09:10:31;;;;;;;1.98;1.83;;;21.50;39.70;;;;;;5068311;28;20017;-86
2022/04/16 09:12:59;;;;;;;2.60;2.17;;;21.80;36.50;;;;;;5082465;28;20020;-87
2022/04/16 09:15:26;;;;;;;1.80;1.70;;;22.30;37.70;;;;;;5072701;28;20519;-86
2022/04/16 09:18:06;;;;;;;2.45;1.80;;;22.30;38.00;;;;;;5074003;28;20040;-89
2022/04/16 09:20:34;;;;;;;1.90;1.52;;;22.70;38.40;;;;;;5071671;28;20021;-87
2022/04/16 09:23:01;;;;;;;2.42;1.52;;;22.60;36.80;;;;;;5067875;28;20045;-85
2022/04/16 09:25:30;;;;;;;2.33;1.88;;;22.60;36.50;;;;;;5060728;28;20028;-86
2022/04/16 09:27:58;;;;;;;2.65;1.67;;;22.20;36.60;;;;;;5072268;28;20451;-86
2022/04/16 09:30:30;;;;;;;2.90;1.85;;;21.40;38.10;;;;;;5059359;28;20024;-86
2022/04/16 09:32:57;;;;;;;3.47;1.40;;;21.50;38.30;;;;;;5062416;28;20052;-85
2022/04/16 09:35:27;;;;;;;2.25;1.80;;;21.40;39.30;;;;;;5058415;28;20025;-85
2022/04/16 09:38:01;;;;;;;2.03;1.70;;;21.50;39.50;;;;;;5059158;28;20032;-85
2022/04/16 09:40:31;;;;;;;4.30;2.20;;;21.70;40.50;;;;;;5065435;28;20560;-87
2022/04/16 09:43:01;;;;;;;4.22;2.13;;;21.80;40.30;;;;;;5065663;28;20491;-87
2022/04/16 09:45:28;;;;;;;2.88;2.25;;;21.20;40.00;;;;;;5053633;28;20043;-86
2022/04/16 09:47:54;;;;;;;7.70;2.00;;;20.70;41.50;;;;;;5060329;28;20086;-86
2022/04/16 09:50:22;;;;;;;2.05;1.85;;;20.00;42.70;;;;;;5063395;28;20033;-85
2022/04/16 09:52:56;;;;;;;2.05;1.60;;;19.60;45.30;;;;;;5063865;28;20059;-86
2022/04/16 09:55:26;;;;;;;2.08;1.15;;;19.50;41.20;;;;;;5074614;28;20025;-85
2022/04/16 09:58:03;;;;;;;1.52;1.20;;;19.70;40.50;;;;;;5066548;28;20024;-85
2022/04/16 10:00:31;;;;;;;1.23;1.13;;;19.40;39.10;;;;;;5059986;28;20025;-86
2022/04/16 10:02:58;;;;;;;3.08;1.20;;;19.00;41.40;;;;;;5065572;28;20029;-85
2022/04/16 10:05:24;;;;;;;2.25;1.35;;;18.30;39.80;;;;;;5064158;28;20029;-87
2022/04/16 10:07:54;;;;;;;2.10;1.15;;;17.80;43.10;;;;;;5062904;28;20042;-85
2022/04/16 10:11:03;;;;;;;3.60;1.75;;;16.70;43.40;;;;;;5059049;28;20047;-84
2022/04/16 10:13:11;;;;;;;2.10;1.17;;;16.70;44.70;;;;;;5049871;28;20238;-85
2022/04/16 10:16:01;;;;;;;1.27;1.10;;;17.00;46.00;;;;;;5056770;28;20033;-85
2022/04/16 10:18:28;;;;;;;1.88;1.20;;;17.40;43.50;;;;;;5065956;28;20020;-85
2022/04/16 10:21:01;;;;;;;1.80;1.10;;;16.90;45.70;;;;;;5063127;28;20029;-88
2022/04/16 10:23:32;;;;;;;1.85;1.20;;;17.50;45.20;;;;;;5061332;28;20040;-87
2022/04/16 10:26:11;;;;;;;1.80;1.27;;;17.80;41.60;;;;;;5063564;28;20032;-86
2022/04/16 10:28:39;;;;;;;1.33;1.00;;;18.90;43.70;;;;;;5061409;28;20439;-86
2022/04/16 10:31:06;;;;;;;1.85;1.00;;;19.30;40.10;;;;;;5055005;28;20025;-87
2022/04/16 10:33:32;;;;;;;4.20;1.40;;;18.70;43.70;;;;;;5059231;28;20033;-86
2022/04/16 10:36:01;;;;;;;3.25;1.00;;;19.50;44.30;;;;;;5060206;28;20028;-85
2022/04/16 10:38:34;;;;;;;2.25;1.00;;;19.60;40.80;;;;;;5061610;28;20029;-86
2022/04/16 10:41:02;;;;;;;2.63;0.93;;;19.10;39.30;;;;;;5062725;28;20025;-86
2022/04/16 10:43:34;;;;;;;1.08;1.00;;;17.30;42.30;;;;;;5061475;28;20110;-87
2022/04/16 10:46:03;;;;;;;2.10;1.23;;;17.20;43.40;;;;;;5060385;28;20024;-85
2022/04/16 10:48:32;;;;;;;2.30;1.20;;;17.50;43.60;;;;;;5064075;28;20081;-86
2022/04/16 10:51:00;;;;;;;1.33;1.20;;;17.70;40.90;;;;;;5066473;28;20530;-85
2022/04/16 10:53:43;;;;;;;1.80;1.10;;;17.40;43.90;;;;;;5056646;28;20515;-87
2022/04/16 10:56:16;;;;;;;1.20;0.90;;;17.30;44.90;;;;;;5062526;28;20028;-87
2022/04/16 10:58:45;;;;;;;1.33;0.90;;;18.00;43.10;;;;;;5065371;28;20462;-85
2022/04/16 11:01:12;;;;;;;1.27;1.17;;;18.20;40.50;;;;;;5068769;28;20025;-84
2022/04/16 11:03:45;;;;;;;0.90;0.80;;;17.20;40.70;;;;;;5063187;28;20029;-85
2022/04/16 11:06:11;;;;;;;1.95;1.08;;;14.30;45.60;;;;;;5076335;28;20028;-83
2022/04/16 11:08:38;;;;;;;4.22;0.90;;;13.30;51.20;;;;;;5069560;28;20033;-84
2022/04/16 11:11:04;;;;;;;1.50;1.40;;;12.90;51.60;;;;;;5063420;28;20025;-86
2022/04/16 11:13:31;;;;;;;3.42;1.10;;;13.20;52.40;;;;;;5069071;28;20078;-86
2022/04/16 11:16:01;;;;;;;1.30;1.20;;;14.00;54.70;;;;;;5070472;28;20025;-85
2022/04/16 11:18:41;;;;;;;3.25;0.95;;;14.70;53.40;;;;;;5059169;28;20040;-85
2022/04/16 11:21:20;;;;;;;1.92;1.15;;;15.60;50.60;;;;;;5058545;28;20112;-85
2022/04/16 11:23:48;;;;;;;1.67;1.02;;;16.50;46.90;;;;;;5069425;28;20400;-85
2022/04/16 11:34:30;;;;;;;1.40;1.20;;;15.00;48.50;;;;;;5064595;28;20032;-85
2022/04/16 11:36:56;;;;;;;4.18;3.30;;;14.50;50.50;;;;;;5066054;28;20104;-85
2022/04/16 11:39:32;;;;;;;1.10;0.88;;;14.20;49.10;;;;;;5066497;28;20108;-86
2022/04/16 11:41:59;;;;;;;1.38;0.88;;;14.10;50.80;;;;;;5065726;28;20028;-87
2022/04/16 11:44:44;;;;;;;1.52;0.80;;;15.00;50.70;;;;;;5063407;28;20021;-86
2022/04/16 11:47:37;;;;;;;2.63;0.95;;;15.80;47.60;;;;;;5081879;28;20037;-85
2022/04/16 11:50:06;;;;;;;1.55;0.90;;;16.40;46.00;;;;;;5065250;28;20060;-87
2022/04/16 11:52:33;;;;;;;1.33;0.85;;;16.10;45.20;;;;;;5069892;28;20021;-86
2022/04/16 11:54:59;;;;;;;1.00;0.90;;;16.60;47.40;;;;;;5068732;28;20027;-85
2022/04/16 11:57:25;;;;;;;0.90;0.80;;;16.60;47.90;;;;;;5065091;28;20104;-86
2022/04/16 12:00:04;;;;;;;0.85;0.80;;;17.30;48.00;;;;;;5062324;28;20100;-87
2022/04/16 12:02:35;;;;;;;1.40;0.90;;;17.30;43.70;;;;;;5082577;28;20641;-87
2022/04/16 12:05:27;;;;;;;1.38;0.80;;;17.10;44.60;;;;;;5062539;28;20035;-86
2022/04/16 12:07:53;;;;;;;1.15;0.88;;;16.80;45.10;;;;;;5057080;28;20554;-86
2022/04/16 12:10:20;;;;;;;1.60;0.82;;;17.20;47.00;;;;;;5059678;28;20333;-86
2022/04/16 12:12:48;;;;;;;0.85;0.70;;;16.80;44.20;;;;;;5066633;28;20018;-87
2022/04/16 12:15:27;;;;;;;1.88;0.93;;;17.30;46.30;;;;;;5062801;28;20051;-87
2022/04/16 12:18:07;;;;;;;1.33;0.90;;;17.90;45.30;;;;;;5069292;28;20097;-87
2022/04/16 12:20:33;;;;;;;0.60;0.60;;;18.30;44.60;;;;;;5065350;28;20079;-85
2022/04/16 12:23:02;;;;;;;0.75;0.70;;;18.50;42.30;;;;;;5070765;28;20032;-86
2022/04/16 12:25:28;;;;;;;1.33;0.95;;;17.20;39.20;;;;;;5063738;28;20080;-84
2022/04/16 12:27:56;;;;;;;2.15;0.77;;;16.60;42.80;;;;;;5067877;28;20479;-87
2022/04/16 12:30:24;;;;;;;0.90;0.80;;;16.20;45.50;;;;;;5067070;28;20108;-87
2022/04/16 12:33:01;;;;;;;2.53;0.90;;;15.60;47.60;;;;;;5069410;28;20028;-86
2022/04/16 12:35:29;;;;;;;1.02;0.90;;;15.20;44.70;;;;;;5077614;28;20078;-85
2022/04/16 12:37:55;;;;;;;2.03;0.88;;;15.60;47.20;;;;;;5056302;28;20080;-86
2022/04/16 12:40:22;;;;;;;0.88;0.65;;;15.90;47.20;;;;;;5064705;28;20016;-85
2022/04/16 12:42:52;;;;;;;1.67;0.90;;;16.20;46.80;;;;;;5062459;28;20044;-87
2022/04/16 12:45:18;;;;;;;0.82;0.77;;;16.70;46.50;;;;;;5062199;28;20111;-86
2022/04/16 12:47:44;;;;;;;1.35;1.15;;;16.90;44.50;;;;;;5064018;28;20651;-86
2022/04/16 12:50:10;;;;;;;1.38;1.00;;;16.90;45.80;;;;;;5071194;28;20040;-86
2022/04/16 12:52:36;;;;;;;1.83;1.10;;;17.30;46.10;;;;;;5056744;28;20480;-84
2022/04/16 12:55:02;;;;;;;1.77;1.00;;;17.30;41.70;;;;;;5065914;28;20087;-84
2022/04/16 12:57:28;;;;;;;1.95;0.95;;;15.90;41.90;;;;;;5063797;28;20512;-85
2022/04/16 12:59:54;;;;;;;1.40;1.10;;;15.60;46.30;;;;;;5066229;28;20056;-85
2022/04/16 13:02:19;;;;;;;1.20;0.90;;;15.00;47.90;;;;;;5060427;28;20029;-88
2022/04/16 13:04:45;;;;;;;3.13;1.20;;;15.50;50.60;;;;;;5067688;28;20032;-85
2022/04/16 13:07:11;;;;;;;1.23;0.95;;;16.10;48.80;;;;;;5061593;28;20031;-87
2022/04/16 13:09:36;;;;;;;3.33;1.10;;;16.50;46.90;;;;;;5070833;28;20056;-86